DTKA/TBJ METAR and TAF weather

Enter ICAO airport designator
Station Type Date Time Source
DTKA METAR 2019/08/25 03:00 UTC NOAA

DTKA 250300Z AUTO 10002KT NCD 24/24 Q1015


Station Type Date Time Source
DTKA Decoded METAR 2019/08/25 03:00 UTC NOAA

Station name not available
Aug 24, 2019 - 11:00 PM EDT / 2019.08.25 0300 UTC
Wind: from the E (100 degrees) at 2 MPH (2 KT):0
Temperature: 75 F (24 C)
Dew Point: 75 F (24 C)
Relative Humidity: 100%
Pressure (altimeter): 29.97 in. Hg (1015 hPa)
ob: DTKA 250300Z AUTO 10002KT NCD 24/24 Q1015
cycle: 3

Station Type Date Time Source
DTKA TAF 2018/07/22 13:33 UTC NOAA

TAF TAF DTKA 221200Z 2213/2322 23005KT 9999 FEW020 PROB30
TEMPO 2217/2222 4000 -TSRA FEW026CB

Example: see airport list